createdAt,value
2019-04-30T00:03:30.766Z,4.13
2019-04-30T00:07:35.733Z,5.07
2019-04-30T00:11:39.435Z,3.93
2019-04-30T00:15:42.890Z,3.63
2019-04-30T00:19:50.496Z,3.83
2019-04-30T00:23:51.774Z,3.83
2019-04-30T00:27:55.944Z,3.55
2019-04-30T00:32:04.227Z,3.80
2019-04-30T00:36:05.367Z,3.70
2019-04-30T00:40:09.179Z,3.30
2019-04-30T00:44:15.035Z,3.15
2019-04-30T00:48:26.827Z,3.20
2019-04-30T00:52:25.310Z,3.05
2019-04-30T00:56:29.095Z,3.15
2019-04-30T01:00:35.258Z,3.90
2019-04-30T01:04:41.409Z,2.95
2019-04-30T01:08:46.126Z,2.83
2019-04-30T01:12:50.375Z,3.73
2019-04-30T01:16:54.474Z,2.72
2019-04-30T01:20:58.662Z,2.98
2019-04-30T01:25:09.059Z,2.80
2019-04-30T01:29:07.967Z,3.40
2019-04-30T01:33:11.714Z,3.20
2019-04-30T01:37:15.226Z,3.08
2019-04-30T01:41:20.282Z,3.40
2019-04-30T01:45:30.106Z,3.22
2019-04-30T01:49:41.578Z,3.15
2019-04-30T01:53:34.455Z,4.17
2019-04-30T01:57:42.455Z,3.40
2019-04-30T02:01:48.712Z,3.67
2019-04-30T02:05:52.258Z,3.70
2019-04-30T02:09:55.722Z,3.87
2019-04-30T02:13:59.242Z,3.30
2019-04-30T02:18:02.741Z,3.55
2019-04-30T02:22:06.174Z,3.80
2019-04-30T02:26:09.619Z,3.70
2019-04-30T02:30:14.638Z,3.30
2019-04-30T02:34:22.076Z,3.70
2019-04-30T02:38:32.323Z,3.85
2019-04-30T02:42:39.703Z,3.90
2019-04-30T02:46:44.121Z,4.25
2019-04-30T02:54:55.700Z,3.55
2019-04-30T02:59:03.210Z,4.15
2019-04-30T03:03:04.355Z,3.50
2019-04-30T03:07:09.799Z,3.35
2019-04-30T03:11:13.407Z,3.80
2019-04-30T03:15:19.498Z,3.52
2019-04-30T03:19:29.333Z,3.35
2019-04-30T03:23:32.191Z,2.90
2019-04-30T03:27:35.655Z,3.08
2019-04-30T03:31:43.846Z,3.12
2019-04-30T03:35:47.632Z,2.60
2019-04-30T03:39:49.799Z,2.58
2019-04-30T03:43:53.240Z,2.98
2019-04-30T03:47:59.592Z,2.10
2019-04-30T03:52:02.123Z,3.17
2019-04-30T03:56:05.566Z,2.58
2019-04-30T04:00:11.091Z,3.17
2019-04-30T04:04:22.093Z,2.95
2019-04-30T04:08:38.955Z,3.42
2019-04-30T04:16:44.578Z,2.70
2019-04-30T04:20:51.955Z,2.17
2019-04-30T04:24:53.535Z,2.85
2019-04-30T04:28:59.195Z,2.67
2019-04-30T04:33:02.145Z,2.08
2019-04-30T04:37:05.585Z,2.20
2019-04-30T04:41:10.391Z,2.60
2019-04-30T04:45:14.424Z,3.27
2019-04-30T04:49:19.973Z,2.98
2019-04-30T04:53:23.110Z,4.15
2019-04-30T04:57:26.901Z,4.42
2019-04-30T05:01:30.691Z,4.87
2019-04-30T05:05:34.609Z,5.67
2019-04-30T05:09:39.671Z,5.37
2019-04-30T05:13:43.289Z,5.97
2019-04-30T05:17:47.077Z,5.55
2019-04-30T05:21:51.697Z,6.20
2019-04-30T05:25:55.261Z,5.70
2019-04-30T05:29:59.568Z,6.05
2019-04-30T05:34:06.178Z,5.47
2019-04-30T05:42:12.926Z,5.75
2019-04-30T05:46:16.360Z,6.10
2019-04-30T05:50:20.387Z,5.70
2019-04-30T05:54:24.347Z,5.97
2019-04-30T05:58:29.795Z,6.10
2019-04-30T06:02:34.075Z,6.07
2019-04-30T06:06:38.899Z,6.40
2019-04-30T06:10:44.183Z,6.75
2019-04-30T06:14:59.003Z,6.53
2019-04-30T06:19:02.470Z,6.75
2019-04-30T06:23:05.932Z,7.25
2019-04-30T06:27:10.873Z,7.70
2019-04-30T06:31:14.473Z,8.93
2019-04-30T06:35:19.360Z,9.20
2019-04-30T06:39:23.263Z,9.63
2019-04-30T06:43:28.590Z,11.38
2019-04-30T06:47:33.367Z,9.60
2019-04-30T06:51:38.942Z,10.50
2019-04-30T06:55:42.508Z,10.48
2019-04-30T06:59:45.961Z,12.30
2019-04-30T07:08:46.892Z,11.03
2019-04-30T07:12:58.985Z,11.65
2019-04-30T07:17:02.530Z,11.33
2019-04-30T07:21:06.049Z,13.20
2019-04-30T07:25:09.701Z,12.75
2019-04-30T07:29:13.143Z,13.13
2019-04-30T07:33:16.862Z,12.53
2019-04-30T07:37:24.359Z,12.07
2019-04-30T07:41:25.891Z,12.47
2019-04-30T07:45:31.962Z,11.70
2019-04-30T07:49:46.766Z,12.15
2019-04-30T07:53:40.658Z,12.53
2019-04-30T07:57:44.467Z,10.80
2019-04-30T08:02:03.249Z,10.72
2019-04-30T08:05:54.745Z,11.13
2019-04-30T08:09:58.991Z,11.20
2019-04-30T08:14:02.900Z,10.18
2019-04-30T08:18:08.602Z,10.18
2019-04-30T08:22:11.990Z,10.00
2019-04-30T08:26:18.773Z,10.38
2019-04-30T08:30:26.701Z,8.85
2019-04-30T08:34:29.218Z,10.80
2019-04-30T08:38:32.903Z,10.00
2019-04-30T08:42:38.392Z,9.93
2019-04-30T08:46:41.561Z,11.23
2019-04-30T08:50:46.636Z,11.43
2019-04-30T08:54:50.126Z,11.07
2019-04-30T08:58:54.931Z,12.15
2019-04-30T09:02:59.458Z,12.95
2019-04-30T09:07:03.112Z,12.28
2019-04-30T09:11:19.225Z,12.53
2019-04-30T09:15:13.510Z,12.23
2019-04-30T09:19:21.065Z,12.77
2019-04-30T09:27:25.515Z,13.25
2019-04-30T09:31:29.777Z,14.95
2019-04-30T09:35:33.353Z,15.10
2019-04-30T09:39:36.810Z,13.78
2019-04-30T09:43:40.577Z,14.15
2019-04-30T09:47:44.311Z,14.25
2019-04-30T09:51:49.463Z,15.65
2019-04-30T09:55:53.228Z,16.17
2019-04-30T09:59:56.959Z,14.58
2019-04-30T10:04:00.853Z,14.98
2019-04-30T10:08:04.886Z,16.15
2019-04-30T10:12:09.979Z,15.58
2019-04-30T10:16:31.636Z,16.07
2019-04-30T10:20:45.809Z,15.78
2019-04-30T10:24:49.589Z,14.70
2019-04-30T10:28:53.246Z,16.57
2019-04-30T10:32:56.774Z,16.12
2019-04-30T10:37:02.937Z,16.42
2019-04-30T10:41:06.019Z,15.30
2019-04-30T10:45:09.963Z,15.20
2019-04-30T10:49:14.478Z,16.82
2019-04-30T10:53:17.922Z,17.77
2019-04-30T10:57:21.394Z,17.23
2019-04-30T11:01:24.849Z,16.93
2019-04-30T11:05:29.239Z,17.32
2019-04-30T11:09:34.538Z,16.60
2019-04-30T11:13:38.063Z,17.27
2019-04-30T11:17:41.640Z,19.02
2019-04-30T11:21:45.669Z,18.25
2019-04-30T11:25:51.066Z,18.15
2019-04-30T11:30:00.639Z,18.80
2019-04-30T11:34:01.221Z,15.50
2019-04-30T11:38:05.187Z,15.68
2019-04-30T11:42:08.734Z,18.25
2019-04-30T11:46:28.701Z,17.12
2019-04-30T11:50:32.312Z,16.17
2019-04-30T11:54:48.496Z,16.93
2019-04-30T11:58:41.323Z,17.02
2019-04-30T12:02:44.918Z,16.25
2019-04-30T12:06:48.386Z,15.18
2019-04-30T12:10:59.476Z,15.40
2019-04-30T12:15:03.399Z,14.63
2019-04-30T12:19:08.905Z,12.82
2019-04-30T12:23:12.062Z,15.57
2019-04-30T12:27:15.868Z,12.60
2019-04-30T12:31:19.332Z,14.00
2019-04-30T12:35:22.778Z,14.23
2019-04-30T12:39:26.229Z,15.43
2019-04-30T12:43:29.678Z,16.02
2019-04-30T12:47:34.783Z,15.03
2019-04-30T12:51:45.959Z,15.18
2019-04-30T12:55:51.730Z,14.38
2019-04-30T12:59:55.003Z,15.27
2019-04-30T13:04:01.230Z,15.08
2019-04-30T13:08:04.796Z,13.25
2019-04-30T13:12:10.396Z,15.78
2019-04-30T13:16:14.078Z,15.15
2019-04-30T13:20:21.724Z,12.66
2019-04-30T13:24:22.892Z,12.33
2019-04-30T13:28:28.366Z,14.00
2019-04-30T13:32:33.546Z,13.57
2019-04-30T13:36:37.010Z,13.43
2019-04-30T13:40:43.596Z,13.53
2019-04-30T13:44:49.177Z,13.10
2019-04-30T13:48:52.286Z,10.73
2019-04-30T13:52:55.726Z,8.70
2019-04-30T13:56:59.475Z,8.43
2019-04-30T14:01:02.924Z,8.65
2019-04-30T14:05:08.150Z,7.90
2019-04-30T14:09:16.175Z,7.70
2019-04-30T14:13:20.557Z,7.40
2019-04-30T14:17:24.318Z,7.12
2019-04-30T14:21:33.203Z,7.15
2019-04-30T14:25:33.374Z,13.70
2019-04-30T14:29:36.908Z,13.93
2019-04-30T14:33:40.635Z,14.70
2019-04-30T14:37:44.097Z,15.25
2019-04-30T14:41:51.167Z,14.25
2019-04-30T14:46:11.501Z,16.10
2019-04-30T14:50:18.612Z,14.28
2019-04-30T14:54:36.047Z,14.35
2019-04-30T14:58:47.162Z,14.33
2019-04-30T15:02:55.344Z,13.35
2019-04-30T15:06:58.858Z,14.13
2019-04-30T15:11:02.408Z,15.28
2019-04-30T15:15:09.042Z,14.73
2019-04-30T15:19:12.520Z,14.78
2019-04-30T15:23:30.475Z,15.70
2019-04-30T15:27:34.286Z,14.50
2019-04-30T15:31:39.438Z,14.50
2019-04-30T15:35:42.918Z,14.63
2019-04-30T15:39:46.607Z,14.10
2019-04-30T15:43:50.129Z,14.33
2019-04-30T15:47:53.872Z,14.93
2019-04-30T15:51:57.676Z,15.18
2019-04-30T15:56:01.134Z,14.45
2019-04-30T16:00:07.505Z,14.97
2019-04-30T16:04:12.641Z,14.60
2019-04-30T16:08:23.746Z,15.18
2019-04-30T16:12:48.603Z,15.63
2019-04-30T16:16:53.401Z,15.75
2019-04-30T16:20:56.849Z,15.83
2019-04-30T16:25:00.639Z,16.65
2019-04-30T16:29:04.794Z,16.35
2019-04-30T16:33:09.490Z,15.17
2019-04-30T16:37:13.354Z,15.95
2019-04-30T16:41:30.687Z,17.27
2019-04-30T16:45:22.055Z,18.20
2019-04-30T16:49:25.502Z,16.85
2019-04-30T16:53:28.958Z,18.32
2019-04-30T16:57:32.737Z,19.48
2019-04-30T17:01:36.703Z,18.60
2019-04-30T17:05:44.683Z,18.32
2019-04-30T17:10:08.854Z,18.62
2019-04-30T17:14:31.381Z,17.62
2019-04-30T17:18:35.222Z,18.45
2019-04-30T17:22:39.478Z,18.50
2019-04-30T17:26:42.977Z,18.32
2019-04-30T17:30:46.567Z,16.73
2019-04-30T17:34:50.277Z,18.00
2019-04-30T17:38:53.737Z,16.50
2019-04-30T17:42:57.193Z,16.55
2019-04-30T17:47:00.660Z,16.07
2019-04-30T17:51:04.427Z,16.00
2019-04-30T17:55:09.728Z,15.83
2019-04-30T18:03:16.584Z,16.20
2019-04-30T18:07:20.109Z,15.50
2019-04-30T18:11:23.566Z,14.73
2019-04-30T18:15:28.652Z,16.20
2019-04-30T18:19:39.502Z,14.30
2019-04-30T18:23:50.334Z,15.30
2019-04-30T18:27:55.761Z,15.63
2019-04-30T18:31:59.889Z,15.47
2019-04-30T18:36:03.611Z,15.25
2019-04-30T18:40:09.627Z,15.95
2019-04-30T18:44:13.265Z,15.95
2019-04-30T18:48:16.729Z,16.15
2019-04-30T18:52:20.178Z,15.72
2019-04-30T18:56:23.654Z,15.72
2019-04-30T19:00:29.408Z,16.57
2019-04-30T19:04:32.972Z,16.23
2019-04-30T19:08:39.484Z,16.80
2019-04-30T19:12:45.102Z,17.32
2019-04-30T19:17:06.506Z,16.83
2019-04-30T19:21:10.937Z,17.48
2019-04-30T19:25:14.399Z,17.27
2019-04-30T19:29:18.188Z,16.65
2019-04-30T19:33:22.034Z,16.77
2019-04-30T19:37:25.821Z,16.85
2019-04-30T19:41:29.279Z,15.75
2019-04-30T19:45:32.790Z,16.12
2019-04-30T19:49:36.537Z,15.13
2019-04-30T19:53:39.998Z,15.45
2019-04-30T19:57:43.474Z,16.50
2019-04-30T20:01:48.742Z,16.02
2019-04-30T20:05:52.114Z,15.23
2019-04-30T20:10:01.089Z,16.12
2019-04-30T20:14:01.015Z,16.02
2019-04-30T20:18:12.079Z,15.58
2019-04-30T20:22:15.702Z,15.60
2019-04-30T20:26:19.512Z,16.30
2019-04-30T20:30:22.978Z,14.93
2019-04-30T20:34:26.438Z,17.87
2019-04-30T20:38:34.632Z,17.67
2019-04-30T20:42:39.992Z,18.60
2019-04-30T20:46:43.344Z,18.87
2019-04-30T20:50:47.645Z,19.52
2019-04-30T20:54:51.113Z,19.42
2019-04-30T20:58:58.616Z,18.82
2019-04-30T21:03:00.109Z,18.50
2019-04-30T21:07:03.549Z,18.80
2019-04-30T21:11:07.017Z,19.48
2019-04-30T21:15:10.545Z,19.40
2019-04-30T21:19:14.013Z,20.15
2019-04-30T21:23:19.456Z,18.05
2019-04-30T21:27:23.177Z,20.02
2019-04-30T21:31:31.263Z,21.53
2019-04-30T21:35:36.436Z,19.17
2019-04-30T21:39:39.969Z,21.33
2019-04-30T21:43:43.431Z,19.87
2019-04-30T21:47:56.105Z,21.35
2019-04-30T21:51:52.121Z,19.97
2019-04-30T21:55:55.577Z,19.80
2019-04-30T21:59:59.034Z,20.05
2019-04-30T22:04:02.489Z,21.30
2019-04-30T22:08:10.641Z,20.02
2019-04-30T22:12:14.094Z,20.15
2019-04-30T22:16:20.097Z,18.15
2019-04-30T22:20:23.415Z,20.77
2019-04-30T22:24:28.321Z,19.75
2019-04-30T22:28:32.056Z,19.02
2019-04-30T22:32:35.795Z,21.27
2019-04-30T22:36:40.913Z,20.30
2019-04-30T22:40:44.447Z,21.82
2019-04-30T22:44:49.382Z,21.48
2019-04-30T22:48:53.186Z,22.87
2019-04-30T22:52:56.707Z,22.17
2019-04-30T22:57:00.165Z,22.48
2019-04-30T23:01:11.309Z,21.93
2019-04-30T23:05:16.183Z,23.98
2019-04-30T23:09:19.697Z,23.35
2019-04-30T23:13:23.150Z,23.00
2019-04-30T23:17:26.601Z,24.80
2019-04-30T23:21:30.389Z,21.87
2019-04-30T23:25:33.850Z,25.12
2019-04-30T23:29:37.286Z,25.02
2019-04-30T23:33:40.815Z,25.65
2019-04-30T23:37:44.278Z,25.23
2019-04-30T23:41:47.740Z,26.37
2019-04-30T23:45:51.177Z,26.37
2019-04-30T23:49:54.946Z,27.35
2019-04-30T23:53:58.385Z,24.43
2019-04-30T23:58:02.122Z,25.00
